Time;durP1;ratioP1;P1;durP2;ratioP2;P2;SDS_P1;SDS_P2;PMS_P1;PMS_P2;Temp;Humidity;BMP_temperature;BMP_pressure;BME280_temperature;BME280_humidity;BME280_pressure;Samples;Min_cycle;Max_cycle;Signal;HPM_P1;HPM_P2
2020/12/19 00:00:33;;;;;;;;;;;;;;;4.83;76.67;100298.78;5090153;28;19923;-73
2020/12/19 00:02:58;;;;;;;;;;;;;;;4.85;76.60;100304.72;5086173;28;19956;-73
2020/12/19 00:05:24;;;;;;;;;;;;;;;4.84;76.53;100300.44;5092488;28;19916;-74
2020/12/19 00:07:49;;;;;;;;;;;;;;;4.85;76.54;100294.91;5090547;28;20408;-73
2020/12/19 00:10:15;;;;;;;;;;;;;;;4.87;76.42;100302.66;5091189;28;19916;-73
2020/12/19 00:12:45;;;;;;;;;;;;;;;4.89;76.57;100301.41;5091106;28;19919;-73
2020/12/19 00:15:11;;;;;;;;;;;;;;;4.91;76.16;100296.72;5091352;28;20301;-74
2020/12/19 00:17:36;;;;;;;;;;;;;;;4.93;76.67;100299.16;5090171;28;19924;-73
2020/12/19 00:20:01;;;;;;;;;;;;;;;4.96;76.33;100298.75;5088794;28;19915;-72
2020/12/19 00:22:26;;;;;;;;;;;;;;;4.96;76.11;100296.91;5070839;28;20945;-73
2020/12/19 00:24:52;;;;;;;;;;;;;;;4.98;76.31;100299.38;5079307;28;19945;-73
2020/12/19 00:27:17;;;;;;;;;;;;;;;4.99;76.38;100306.28;5092221;28;20369;-73
2020/12/19 00:29:42;;;;;;;;;;;;;;;5.00;76.28;100307.13;5078603;28;19925;-73
2020/12/19 00:32:08;;;;;;;;;;;;;;;4.95;76.31;100315.69;5082499;28;19916;-73
2020/12/19 00:34:34;;;;;;;;;;;;;;;4.94;76.71;100311.41;5106938;28;20399;-74
2020/12/19 00:37:00;;;;;;;;;;;;;;;4.94;76.79;100309.59;5110846;27;20391;-74
2020/12/19 00:39:25;;;;;;;;;;;;;;;4.93;76.44;100305.31;5090974;28;20300;-74
2020/12/19 00:41:50;;;;;;;;;;;;;;;4.89;76.96;100304.06;5085249;28;19920;-77
2020/12/19 00:44:15;;;;;;;;;;;;;;;4.86;76.81;100306.31;5076239;28;19999;-78
2020/12/19 00:46:41;;;;;;;;;;;;;;;4.83;77.25;100302.25;5086922;28;19916;-75
2020/12/19 00:49:06;;;;;;;;;;;;;;;4.83;77.49;100304.91;5074571;28;20449;-75
2020/12/19 00:51:31;;;;;;;;;;;;;;;4.82;77.24;100305.91;5086216;28;19923;-75
2020/12/19 00:53:57;;;;;;;;;;;;;;;4.77;76.91;100305.72;5088869;28;19986;-75
2020/12/19 00:56:23;;;;;;;;;;;;;;;4.73;77.09;100302.66;5080345;28;19970;-75
2020/12/19 00:58:49;;;;;;;;;;;;;;;4.72;77.08;100301.03;5070096;28;19958;-75
2020/12/19 01:01:16;;;;;;;;;;;;;;;4.73;77.52;100305.31;5071385;28;20389;-77
2020/12/19 01:03:41;;;;;;;;;;;;;;;4.73;77.25;100299.22;5074130;28;19917;-82
2020/12/19 01:06:07;;;;;;;;;;;;;;;4.73;77.70;100302.66;5070248;28;19923;-78
2020/12/19 01:08:34;;;;;;;;;;;;;;;4.75;77.40;100298.00;5084660;28;19938;-78
2020/12/19 01:10:59;;;;;;;;;;;;;;;4.77;77.31;100293.31;5069932;28;20377;-79
2020/12/19 01:13:25;;;;;;;;;;;;;;;4.79;77.47;100298.38;5071231;28;20002;-76
2020/12/19 01:15:50;;;;;;;;;;;;;;;4.79;77.53;100293.09;5083294;28;19916;-77
2020/12/19 01:18:16;;;;;;;;;;;;;;;4.81;77.33;100293.72;5075675;28;19916;-75
2020/12/19 01:20:41;;;;;;;;;;;;;;;4.84;77.13;100297.78;5072868;28;20412;-76
2020/12/19 01:23:07;;;;;;;;;;;;;;;4.85;77.29;100294.91;5082717;28;19981;-77
2020/12/19 01:25:32;;;;;;;;;;;;;;;4.87;77.27;100287.56;5074933;28;19938;-76
2020/12/19 01:27:57;;;;;;;;;;;;;;;4.87;77.23;100292.88;5089927;28;19912;-75
2020/12/19 01:30:22;;;;;;;;;;;;;;;4.85;77.10;100292.25;5074729;28;19909;-75
2020/12/19 01:32:49;;;;;;;;;;;;;;;4.87;77.50;100290.22;5069958;28;19912;-80
2020/12/19 01:35:15;;;;;;;;;;;;;;;4.88;77.35;100304.28;5084509;28;19915;-82
2020/12/19 01:37:40;;;;;;;;;;;;;;;4.88;77.34;100294.50;5082705;28;19939;-81
2020/12/19 01:40:06;;;;;;;;;;;;;;;4.90;77.15;100295.09;5077070;28;20392;-80
2020/12/19 01:42:31;;;;;;;;;;;;;;;4.90;77.26;100289.78;5073143;28;19916;-79
2020/12/19 01:44:56;;;;;;;;;;;;;;;4.90;77.33;100295.09;5089164;28;19938;-80
2020/12/19 01:47:21;;;;;;;;;;;;;;;4.91;77.55;100291.44;5104947;28;20368;-83
2020/12/19 01:49:47;;;;;;;;;;;;;;;4.92;77.19;100295.72;5078441;28;20022;-78
2020/12/19 01:52:13;;;;;;;;;;;;;;;4.92;77.17;100286.94;5090090;28;19912;-78
2020/12/19 01:54:38;;;;;;;;;;;;;;;4.91;77.28;100295.94;5077339;28;20325;-80
2020/12/19 01:57:04;;;;;;;;;;;;;;;4.88;77.09;100294.50;5073926;28;19912;-80
2020/12/19 01:59:32;;;;;;;;;;;;;;;4.85;77.30;100292.25;5090119;28;19955;-77
2020/12/19 02:02:03;;;;;;;;;;;;;;;4.82;77.62;100297.97;5073474;28;19916;-78
2020/12/19 02:04:28;;;;;;;;;;;;;;;4.81;77.34;100291.06;5085739;28;20003;-80
2020/12/19 02:06:55;;;;;;;;;;;;;;;4.81;77.52;100286.56;5093730;28;20380;-78
2020/12/19 02:09:21;;;;;;;;;;;;;;;4.82;77.57;100290.00;5080954;28;19919;-81
2020/12/19 02:11:47;;;;;;;;;;;;;;;4.85;77.57;100289.59;5092705;28;19958;-78
2020/12/19 02:14:12;;;;;;;;;;;;;;;4.85;77.79;100289.59;5093575;28;19959;-81
2020/12/19 02:16:38;;;;;;;;;;;;;;;4.87;77.64;100286.75;5074420;28;19913;-80
2020/12/19 02:19:13;;;;;;;;;;;;;;;4.87;77.80;100286.75;5093224;28;19916;-80
2020/12/19 02:21:41;;;;;;;;;;;;;;;4.87;77.73;100279.63;5075621;28;19942;-81
2020/12/19 02:24:07;;;;;;;;;;;;;;;4.90;77.76;100291.63;5083647;28;19916;-80
2020/12/19 02:26:32;;;;;;;;;;;;;;;4.90;77.79;100289.00;5093406;28;19916;-74
2020/12/19 02:28:57;;;;;;;;;;;;;;;4.91;78.24;100286.13;5091358;28;19990;-74
2020/12/19 02:31:23;;;;;;;;;;;;;;;4.91;77.98;100278.16;5103427;28;20403;-74
2020/12/19 02:33:48;;;;;;;;;;;;;;;4.94;77.77;100287.53;5087047;28;19912;-76
2020/12/19 02:36:13;;;;;;;;;;;;;;;4.95;77.86;100278.56;5110367;28;20107;-77
2020/12/19 02:38:38;;;;;;;;;;;;;;;4.96;77.69;100280.22;5109945;28;19912;-79
2020/12/19 02:41:04;;;;;;;;;;;;;;;4.96;77.62;100270.41;5093154;28;20440;-77
2020/12/19 02:43:29;;;;;;;;;;;;;;;4.97;77.56;100264.09;5088639;28;20011;-77
2020/12/19 02:45:54;;;;;;;;;;;;;;;4.95;77.76;100266.13;5092231;28;20439;-81
2020/12/19 02:48:20;;;;;;;;;;;;;;;4.96;77.31;100264.31;5109256;28;19943;-74
2020/12/19 02:50:45;;;;;;;;;;;;;;;4.96;77.66;100269.59;5096792;28;20006;-73
2020/12/19 02:53:10;;;;;;;;;;;;;;;4.97;77.69;100265.94;5090965;28;20382;-74
2020/12/19 02:55:36;;;;;;;;;;;;;;;4.99;77.22;100263.06;5093034;28;19916;-74
2020/12/19 02:58:01;;;;;;;;;;;;;;;4.98;77.16;100267.56;5081705;28;19916;-74
2020/12/19 03:00:26;;;;;;;;;;;;;;;5.00;77.50;100265.50;5075193;28;19915;-75
2020/12/19 03:02:51;;;;;;;;;;;;;;;5.01;77.38;100264.47;5092652;28;19915;-74
2020/12/19 03:05:16;;;;;;;;;;;;;;;5.01;77.26;100266.34;5083448;28;19912;-74
2020/12/19 03:07:42;;;;;;;;;;;;;;;5.02;77.36;100267.97;5071301;28;19938;-74
2020/12/19 03:10:07;;;;;;;;;;;;;;;5.02;77.50;100274.06;5073505;28;19913;-76
2020/12/19 03:12:32;;;;;;;;;;;;;;;5.03;77.53;100273.06;5074912;28;19955;-76
2020/12/19 03:14:58;;;;;;;;;;;;;;;5.03;77.22;100265.09;5091489;28;20373;-75
2020/12/19 03:17:23;;;;;;;;;;;;;;;5.04;77.07;100272.03;5104142;28;19986;-75
2020/12/19 03:19:48;;;;;;;;;;;;;;;5.06;77.32;100271.81;5072063;28;19999;-76
2020/12/19 03:22:13;;;;;;;;;;;;;;;5.06;76.98;100269.16;5072685;28;20356;-75
2020/12/19 03:24:38;;;;;;;;;;;;;;;5.07;77.18;100270.78;5072871;28;19916;-74
2020/12/19 03:27:04;;;;;;;;;;;;;;;5.08;77.33;100277.72;5074659;28;19919;-75
2020/12/19 03:29:29;;;;;;;;;;;;;;;5.07;77.30;100271.59;5079941;28;19917;-75
2020/12/19 03:31:54;;;;;;;;;;;;;;;5.10;77.29;100270.38;5088384;28;19920;-75
2020/12/19 03:34:20;;;;;;;;;;;;;;;5.11;77.55;100275.47;5084389;28;20397;-77
2020/12/19 03:36:45;;;;;;;;;;;;;;;5.11;77.05;100272.81;5091975;28;20443;-76
2020/12/19 03:39:10;;;;;;;;;;;;;;;5.13;77.41;100280.56;5073860;28;19955;-77
2020/12/19 03:41:35;;;;;;;;;;;;;;;5.14;77.10;100276.91;5071793;28;20014;-76
2020/12/19 03:44:01;;;;;;;;;;;;;;;5.15;77.26;100278.53;5072730;28;19920;-76
2020/12/19 03:46:26;;;;;;;;;;;;;;;5.15;77.09;100273.22;5072131;28;20385;-78
2020/12/19 03:48:51;;;;;;;;;;;;;;;5.16;77.28;100276.69;5080138;28;19916;-77
2020/12/19 03:51:16;;;;;;;;;;;;;;;5.16;77.06;100274.03;5091799;28;19912;-75
2020/12/19 03:53:42;;;;;;;;;;;;;;;5.17;76.97;100270.34;5091776;28;19961;-75
2020/12/19 03:56:07;;;;;;;;;;;;;;;5.17;77.30;100275.66;5091445;28;19912;-76
2020/12/19 03:58:33;;;;;;;;;;;;;;;5.17;76.95;100280.97;5091772;28;20003;-75
2020/12/19 04:00:58;;;;;;;;;;;;;;;5.16;77.00;100272.16;5082786;28;20034;-76
2020/12/19 04:03:23;;;;;;;;;;;;;;;5.15;77.00;100275.88;5081708;28;19922;-76
2020/12/19 04:05:48;;;;;;;;;;;;;;;5.16;76.85;100280.13;5091456;28;20366;-74
2020/12/19 04:08:14;;;;;;;;;;;;;;;5.14;77.44;100276.91;5081431;28;19920;-76
2020/12/19 04:10:39;;;;;;;;;;;;;;;5.15;77.37;100283.84;5071748;28;20748;-76
2020/12/19 04:13:04;;;;;;;;;;;;;;;5.16;77.46;100284.63;5075867;28;19926;-76
2020/12/19 04:15:29;;;;;;;;;;;;;;;5.17;76.73;100278.31;5082888;28;19917;-76
2020/12/19 04:17:55;;;;;;;;;;;;;;;5.17;77.02;100286.25;5076858;28;20533;-76
2020/12/19 04:20:20;;;;;;;;;;;;;;;5.17;76.88;100289.72;5108220;28;19969;-76
2020/12/19 04:22:45;;;;;;;;;;;;;;;5.17;76.83;100283.63;5107940;28;19912;-73
2020/12/19 04:25:11;;;;;;;;;;;;;;;5.16;77.30;100285.44;5107615;28;19953;-74
2020/12/19 04:27:39;;;;;;;;;;;;;;;5.17;77.06;100281.75;5088570;28;20053;-74
2020/12/19 04:30:05;;;;;;;;;;;;;;;5.18;77.07;100282.59;5070639;28;19923;-74
2020/12/19 04:32:30;;;;;;;;;;;;;;;5.19;76.78;100289.50;5091867;27;19916;-75
2020/12/19 04:34:56;;;;;;;;;;;;;;;5.20;76.75;100291.97;5075754;28;20003;-74
2020/12/19 04:37:22;;;;;;;;;;;;;;;5.20;77.20;100284.00;5072216;28;19927;-74
2020/12/19 04:39:48;;;;;;;;;;;;;;;5.21;76.71;100287.47;5085017;28;19920;-75
2020/12/19 04:42:13;;;;;;;;;;;;;;;5.22;76.92;100291.75;5080984;28;19916;-75
2020/12/19 04:44:39;;;;;;;;;;;;;;;5.19;77.11;100286.84;5091097;28;19954;-75
2020/12/19 04:47:04;;;;;;;;;;;;;;;5.19;77.21;100292.97;5089778;28;19919;-75
2020/12/19 04:49:30;;;;;;;;;;;;;;;5.18;77.11;100291.34;5084291;28;19922;-73
2020/12/19 04:51:55;;;;;;;;;;;;;;;5.16;77.24;100296.03;5076858;28;19920;-74
2020/12/19 04:54:21;;;;;;;;;;;;;;;5.13;76.93;100299.13;5085187;28;19972;-74
2020/12/19 04:56:48;;;;;;;;;;;;;;;5.10;77.51;100297.72;5077518;28;19917;-74
2020/12/19 04:59:14;;;;;;;;;;;;;;;5.08;77.65;100302.41;5104360;28;19938;-73
2020/12/19 05:01:39;;;;;;;;;;;;;;;5.06;77.61;100311.59;5077413;28;20381;-73
2020/12/19 05:04:04;;;;;;;;;;;;;;;5.04;77.55;100306.50;5070467;28;19920;-74
2020/12/19 05:06:30;;;;;;;;;;;;;;;5.02;77.64;100302.44;5070361;28;19943;-74
2020/12/19 05:08:55;;;;;;;;;;;;;;;4.99;77.80;100305.47;5074677;28;19964;-74
2020/12/19 05:11:23;;;;;;;;;;;;;;;4.93;78.40;100309.75;5081239;28;20447;-78
2020/12/19 05:13:48;;;;;;;;;;;;;;;4.87;78.28;100311.44;5070370;28;20011;-81
2020/12/19 05:16:15;;;;;;;;;;;;;;;4.83;78.65;100317.34;5104619;28;20068;-75
2020/12/19 05:18:41;;;;;;;;;;;;;;;4.78;78.58;100313.47;5070517;28;19916;-74
2020/12/19 05:21:06;;;;;;;;;;;;;;;4.77;78.67;100318.97;5069859;28;19918;-76
2020/12/19 05:23:36;;;;;;;;;;;;;;;4.74;78.82;100322.84;5082642;28;19939;-78
2020/12/19 05:26:02;;;;;;;;;;;;;;;4.73;78.75;100323.06;5090142;28;19916;-77
2020/12/19 05:28:28;;;;;;;;;;;;;;;4.70;78.79;100329.59;5079288;28;19920;-76
2020/12/19 05:30:53;;;;;;;;;;;;;;;4.67;78.80;100324.69;5087063;28;20307;-76
2020/12/19 05:33:19;;;;;;;;;;;;;;;4.61;79.10;100329.00;5090261;28;20365;-76
2020/12/19 05:35:44;;;;;;;;;;;;;;;4.62;78.92;100332.44;5087325;28;20434;-78
2020/12/19 05:38:10;;;;;;;;;;;;;;;4.58;79.02;100333.88;5083747;28;19915;-75
2020/12/19 05:40:35;;;;;;;;;;;;;;;4.57;79.29;100333.06;5106671;28;19922;-75
2020/12/19 05:43:00;;;;;;;;;;;;;;;4.58;79.02;100336.53;5089109;28;20345;-76
2020/12/19 05:45:27;;;;;;;;;;;;;;;4.57;79.00;100335.72;5106056;28;19912;-75
2020/12/19 05:47:52;;;;;;;;;;;;;;;4.56;79.12;100341.22;5085994;28;19916;-76
2020/12/19 05:50:18;;;;;;;;;;;;;;;4.55;79.13;100348.34;5070071;28;19937;-76
2020/12/19 05:52:43;;;;;;;;;;;;;;;4.55;79.34;100348.34;5069991;28;19916;-75
2020/12/19 05:55:10;;;;;;;;;;;;;;;4.55;79.45;100353.63;5069556;28;19914;-76
2020/12/19 05:57:36;;;;;;;;;;;;;;;4.55;79.65;100355.47;5073190;28;19992;-75
2020/12/19 06:00:12;;;;;;;;;;;;;;;4.54;79.34;100351.19;5078543;28;19917;-77
2020/12/19 06:02:38;;;;;;;;;;;;;;;4.50;79.52;100353.44;5086574;28;19916;-79
2020/12/19 06:05:05;;;;;;;;;;;;;;;4.48;79.33;100360.78;5086365;28;20336;-73
2020/12/19 06:07:34;;;;;;;;;;;;;;;4.43;79.36;100366.69;5089129;28;19945;-73
2020/12/19 06:09:59;;;;;;;;;;;;;;;4.42;79.73;100362.41;5086655;28;19916;-73
2020/12/19 06:12:43;;;;;;;;;;;;;;;4.45;79.76;100369.13;5083071;28;20296;-72
2020/12/19 06:15:11;;;;;;;;;;;;;;;4.45;79.57;100367.28;5069679;28;19999;-73
2020/12/19 06:17:48;;;;;;;;;;;;;;;4.49;79.71;100370.34;5074176;28;19916;-74
2020/12/19 06:20:14;;;;;;;;;;;;;;;4.48;79.40;100369.53;5090745;28;19920;-74
2020/12/19 06:22:39;;;;;;;;;;;;;;;4.48;79.60;100371.38;5083588;28;19959;-75
2020/12/19 06:25:04;;;;;;;;;;;;;;;4.49;79.53;100379.13;5089354;28;19969;-73
2020/12/19 06:27:30;;;;;;;;;;;;;;;4.51;79.60;100370.97;5088257;28;20370;-74
2020/12/19 06:29:55;;;;;;;;;;;;;;;4.52;79.57;100382.38;5086756;28;19920;-74
2020/12/19 06:32:27;;;;;;;;;;;;;;;4.51;79.48;100378.91;5088999;28;19918;-75
2020/12/19 06:35:09;;;;;;;;;;;;;;;4.51;79.71;100378.91;5069203;28;19916;-75
2020/12/19 06:37:36;;;;;;;;;;;;;;;4.53;79.53;100376.06;5093253;28;19963;-75
2020/12/19 06:40:12;;;;;;;;;;;;;;;4.54;79.64;100377.69;5086789;28;19915;-78
2020/12/19 06:42:38;;;;;;;;;;;;;;;4.54;79.45;100381.16;5083251;28;19955;-75
2020/12/19 06:45:19;;;;;;;;;;;;;;;4.55;79.46;100380.13;5076619;28;20466;-73
2020/12/19 06:47:44;;;;;;;;;;;;;;;4.52;79.24;100380.56;5094652;28;19920;-73
2020/12/19 06:50:10;;;;;;;;;;;;;;;4.52;79.37;100379.72;5109870;28;19912;-72
2020/12/19 06:52:35;;;;;;;;;;;;;;;4.49;79.18;100380.94;5090941;28;19922;-73
2020/12/19 06:55:17;;;;;;;;;;;;;;;4.49;79.26;100384.41;5079910;28;19924;-73
2020/12/19 06:57:48;;;;;;;;;;;;;;;4.46;79.20;100386.66;5072807;28;19912;-73
2020/12/19 07:00:18;;;;;;;;;;;;;;;4.46;79.31;100384.00;5091351;28;19926;-74
2020/12/19 07:02:50;;;;;;;;;;;;;;;4.47;79.35;100394.41;5109203;28;19916;-75
2020/12/19 07:05:20;;;;;;;;;;;;;;;4.47;79.57;100389.09;5082540;28;20355;-75
2020/12/19 07:07:46;;;;;;;;;;;;;;;4.49;79.42;100389.72;5072784;28;19956;-74
2020/12/19 07:10:11;;;;;;;;;;;;;;;4.49;79.31;100391.53;5082817;28;19970;-74
2020/12/19 07:12:37;;;;;;;;;;;;;;;4.51;79.37;100388.72;5091037;28;20361;-73
2020/12/19 07:15:06;;;;;;;;;;;;;;;4.52;79.50;100393.78;5081964;28;19956;-74
2020/12/19 07:17:42;;;;;;;;;;;;;;;4.55;79.43;100389.91;5072278;28;19920;-72
2020/12/19 07:20:08;;;;;;;;;;;;;;;4.58;79.12;100387.69;5073103;28;19916;-72
2020/12/19 07:22:33;;;;;;;;;;;;;;;4.61;79.12;100389.94;5090204;28;19916;-73
2020/12/19 07:24:58;;;;;;;;;;;;;;;4.62;79.09;100383.59;5089379;28;19968;-75
2020/12/19 07:27:23;;;;;;;;;;;;;;;4.65;79.01;100383.19;5092481;28;19955;-73
2020/12/19 07:29:49;;;;;;;;;;;;;;;4.67;78.89;100398.09;5096126;28;19969;-73
2020/12/19 07:32:15;;;;;;;;;;;;;;;4.68;79.51;100391.78;5090976;28;19920;-72
2020/12/19 07:34:40;;;;;;;;;;;;;;;4.70;78.87;100397.66;5091367;28;19916;-74
2020/12/19 07:37:06;;;;;;;;;;;;;;;4.69;78.81;100394.22;5090255;28;20414;-76
2020/12/19 07:39:31;;;;;;;;;;;;;;;4.71;78.87;100388.69;5078103;28;19999;-76
2020/12/19 07:42:01;;;;;;;;;;;;;;;4.71;79.00;100397.47;5108173;28;20014;-74
2020/12/19 07:44:27;;;;;;;;;;;;;;;4.68;78.77;100392.56;5072232;28;19974;-74
2020/12/19 07:46:53;;;;;;;;;;;;;;;4.68;78.81;100387.28;5075801;28;19920;-77
2020/12/19 07:49:23;;;;;;;;;;;;;;;4.69;79.08;100396.88;5101433;28;19986;-75
2020/12/19 07:51:48;;;;;;;;;;;;;;;4.72;79.14;100395.63;5116236;27;19911;-77
2020/12/19 07:54:13;;;;;;;;;;;;;;;4.71;78.65;100391.34;5100540;28;19919;-74
2020/12/19 07:56:38;;;;;;;;;;;;;;;4.75;79.20;100390.75;5106025;28;19919;-75
2020/12/19 07:59:04;;;;;;;;;;;;;;;4.76;79.30;100387.09;5111938;28;19915;-76
2020/12/19 08:01:36;;;;;;;;;;;;;;;4.81;79.15;100394.44;5111929;28;20368;-77
2020/12/19 08:04:01;;;;;;;;;;;;;;;4.84;78.90;100393.19;5092619;28;19915;-77
2020/12/19 08:06:39;;;;;;;;;;;;;;;4.87;78.55;100396.25;5091554;28;19980;-74
2020/12/19 08:09:04;;;;;;;;;;;;;;;4.88;78.69;100395.25;5086585;28;20365;-79
2020/12/19 08:11:29;;;;;;;;;;;;;;;4.91;78.68;100394.81;5071205;28;19920;-79
2020/12/19 08:13:54;;;;;;;;;;;;;;;4.93;78.50;100397.25;5071117;28;19997;-73
2020/12/19 08:16:20;;;;;;;;;;;;;;;4.95;78.63;100396.03;5072235;28;20375;-75
2020/12/19 08:18:45;;;;;;;;;;;;;;;4.96;78.22;100392.34;5070743;28;19912;-73
2020/12/19 08:21:11;;;;;;;;;;;;;;;4.98;78.53;100392.16;5075634;28;19986;-74
2020/12/19 08:23:37;;;;;;;;;;;;;;;5.01;78.31;100393.59;5091011;28;19959;-76
2020/12/19 08:26:02;;;;;;;;;;;;;;;5.03;78.50;100394.19;5091124;28;19912;-74
2020/12/19 08:28:27;;;;;;;;;;;;;;;5.05;78.18;100398.25;5091283;28;20014;-75
2020/12/19 08:30:52;;;;;;;;;;;;;;;5.08;77.64;100397.06;5090986;28;19912;-74
2020/12/19 08:33:19;;;;;;;;;;;;;;;5.08;77.40;100389.91;5091118;28;19912;-76
2020/12/19 08:35:44;;;;;;;;;;;;;;;5.10;77.13;100384.38;5074229;28;19916;-72
2020/12/19 08:38:26;;;;;;;;;;;;;;;5.13;77.64;100387.44;5070531;28;20341;-72
2020/12/19 08:41:00;;;;;;;;;;;;;;;5.13;77.38;100386.63;5073271;28;19924;-71
2020/12/19 08:43:35;;;;;;;;;;;;;;;5.12;77.23;100385.00;5087217;28;20010;-72
2020/12/19 08:46:10;;;;;;;;;;;;;;;5.11;76.97;100383.38;5111062;28;19950;-73
2020/12/19 08:48:36;;;;;;;;;;;;;;;5.10;77.23;100379.09;5094204;28;20521;-71
2020/12/19 08:51:07;;;;;;;;;;;;;;;5.10;76.91;100371.13;5090796;28;19918;-71
2020/12/19 08:53:32;;;;;;;;;;;;;;;5.12;76.96;100377.03;5091031;28;19918;-71
2020/12/19 08:56:11;;;;;;;;;;;;;;;5.14;77.20;100367.06;5090569;28;20299;-74
2020/12/19 08:58:36;;;;;;;;;;;;;;;5.17;77.09;100371.13;5085369;28;19922;-81
2020/12/19 09:01:11;;;;;;;;;;;;;;;5.18;76.64;100360.31;5106985;28;19916;-74
2020/12/19 09:03:36;;;;;;;;;;;;;;;5.22;76.59;100368.66;5088186;28;20364;-73
2020/12/19 09:06:05;;;;;;;;;;;;;;;5.25;76.57;100366.41;5090943;28;19927;-73
2020/12/19 09:08:41;;;;;;;;;;;;;;;5.27;76.85;100359.06;5089351;28;19912;-73
2020/12/19 09:11:07;;;;;;;;;;;;;;;5.32;76.73;100366.38;5071488;28;19923;-73
2020/12/19 09:13:32;;;;;;;;;;;;;;;5.31;76.64;100362.13;5098979;27;19916;-73
2020/12/19 09:16:05;;;;;;;;;;;;;;;5.33;76.54;100353.94;5111871;28;20013;-74
2020/12/19 09:18:31;;;;;;;;;;;;;;;5.36;76.57;100356.16;5110688;28;19911;-73
2020/12/19 09:20:58;;;;;;;;;;;;;;;5.38;76.84;100349.66;5089635;28;19959;-73
2020/12/19 09:23:24;;;;;;;;;;;;;;;5.43;76.02;100354.31;5074697;28;20356;-72
2020/12/19 09:25:50;;;;;;;;;;;;;;;5.48;76.25;100346.56;5090273;28;19999;-73
2020/12/19 09:28:15;;;;;;;;;;;;;;;5.51;76.41;100348.78;5072384;28;19920;-74
2020/12/19 09:30:40;;;;;;;;;;;;;;;5.56;75.82;100343.66;5070040;28;20306;-73
2020/12/19 09:33:06;;;;;;;;;;;;;;;5.59;75.75;100334.44;5071367;28;19916;-73
2020/12/19 09:35:31;;;;;;;;;;;;;;;5.63;76.02;100333.00;5070837;28;19916;-73
2020/12/19 09:37:57;;;;;;;;;;;;;;;5.64;75.52;100336.47;5071428;28;20377;-74
2020/12/19 09:40:23;;;;;;;;;;;;;;;5.65;76.00;100328.31;5069828;28;19912;-81
2020/12/19 09:42:48;;;;;;;;;;;;;;;5.70;76.10;100330.31;5082555;28;20365;-79
2020/12/19 09:45:14;;;;;;;;;;;;;;;5.77;76.71;100331.94;5106720;28;19912;-78
2020/12/19 09:47:42;;;;;;;;;;;;;;;5.83;76.29;100327.59;5107016;28;20384;-71
2020/12/19 09:50:08;;;;;;;;;;;;;;;5.89;75.67;100331.25;5090846;28;20350;-73
2020/12/19 09:52:34;;;;;;;;;;;;;;;5.91;75.17;100319.38;5113612;28;19916;-75
2020/12/19 09:54:59;;;;;;;;;;;;;;;5.93;74.93;100327.13;5106075;28;19916;-74
2020/12/19 09:57:24;;;;;;;;;;;;;;;5.95;74.13;100318.97;5085270;28;20645;-74
2020/12/19 09:59:49;;;;;;;;;;;;;;;5.95;74.49;100317.13;5087630;28;19985;-73
2020/12/19 10:02:15;;;;;;;;;;;;;;;5.97;74.99;100315.06;5086376;28;20288;-72
2020/12/19 10:04:40;;;;;;;;;;;;;;;5.98;74.70;100313.22;5083923;28;19916;-73
2020/12/19 10:07:05;;;;;;;;;;;;;;;5.98;74.66;100310.56;5089798;28;19912;-73
2020/12/19 10:09:30;;;;;;;;;;;;;;;5.99;74.45;100301.59;5070640;28;19917;-73
2020/12/19 10:11:56;;;;;;;;;;;;;;;5.99;74.71;100298.94;5081771;28;20033;-73
2020/12/19 10:14:21;;;;;;;;;;;;;;;5.99;74.63;100298.94;5073250;28;20377;-74
2020/12/19 10:16:47;;;;;;;;;;;;;;;6.00;74.56;100301.38;5091679;28;19912;-74
2020/12/19 10:19:12;;;;;;;;;;;;;;;5.98;74.30;100300.78;5091734;28;20319;-74
2020/12/19 10:21:37;;;;;;;;;;;;;;;5.99;74.63;100299.75;5110588;28;19962;-75
2020/12/19 10:24:02;;;;;;;;;;;;;;;5.99;74.22;100296.28;5109624;28;19915;-74
2020/12/19 10:26:28;;;;;;;;;;;;;;;6.00;74.41;100304.03;5095285;28;19912;-74
2020/12/19 10:28:53;;;;;;;;;;;;;;;6.04;74.46;100301.75;5089178;28;19916;-72
2020/12/19 10:31:18;;;;;;;;;;;;;;;6.05;74.06;100298.91;5094156;28;19965;-73
2020/12/19 10:33:43;;;;;;;;;;;;;;;6.08;73.70;100287.84;5086415;28;19931;-73
2020/12/19 10:36:13;;;;;;;;;;;;;;;6.11;74.05;100289.25;5085485;28;19916;-73
2020/12/19 10:38:38;;;;;;;;;;;;;;;6.14;73.82;100280.03;5083673;28;19916;-74
2020/12/19 10:41:03;;;;;;;;;;;;;;;6.14;73.95;100277.38;5077432;28;19916;-72
2020/12/19 10:43:29;;;;;;;;;;;;;;;6.16;73.15;100275.34;5072837;28;20300;-74
2020/12/19 10:45:54;;;;;;;;;;;;;;;6.14;73.10;100267.59;5072755;28;19916;-72
2020/12/19 10:48:19;;;;;;;;;;;;;;;6.15;73.38;100269.22;5072703;28;19924;-73
2020/12/19 10:50:44;;;;;;;;;;;;;;;6.15;72.96;100271.03;5072690;28;20425;-72
2020/12/19 10:53:10;;;;;;;;;;;;;;;6.11;72.94;100262.69;5072695;28;19919;-72
2020/12/19 10:55:36;;;;;;;;;;;;;;;6.08;73.17;100269.25;5072895;28;20517;-72
2020/12/19 10:58:01;;;;;;;;;;;;;;;6.07;73.55;100264.16;5074153;28;19912;-74
2020/12/19 11:00:27;;;;;;;;;;;;;;;6.02;73.81;100264.00;5072712;28;20402;-73
2020/12/19 11:02:52;;;;;;;;;;;;;;;5.96;73.90;100255.03;5072715;28;19942;-73
2020/12/19 11:05:17;;;;;;;;;;;;;;;5.93;73.91;100261.56;5072420;28;19916;-74
2020/12/19 11:07:43;;;;;;;;;;;;;;;5.92;74.16;100257.28;5072660;28;20300;-72
2020/12/19 11:10:08;;;;;;;;;;;;;;;5.95;73.97;100253.38;5072350;28;20383;-73
2020/12/19 11:12:33;;;;;;;;;;;;;;;5.97;73.94;100256.66;5073606;28;19912;-74
2020/12/19 11:14:58;;;;;;;;;;;;;;;6.01;73.81;100254.41;5073801;28;20002;-74
2020/12/19 11:17:26;;;;;;;;;;;;;;;6.03;73.03;100255.00;5072109;28;20413;-74
2020/12/19 11:19:52;;;;;;;;;;;;;;;6.01;73.29;100251.75;5072420;28;19912;-73
2020/12/19 11:22:17;;;;;;;;;;;;;;;6.00;73.37;100250.91;5072100;28;19977;-74
2020/12/19 11:24:42;;;;;;;;;;;;;;;6.01;73.49;100249.91;5072162;28;19916;-73
2020/12/19 11:27:08;;;;;;;;;;;;;;;6.03;73.07;100252.34;5071181;28;20377;-72
2020/12/19 11:29:33;;;;;;;;;;;;;;;6.06;73.36;100252.72;5072254;28;19974;-74
2020/12/19 11:32:02;;;;;;;;;;;;;;;6.07;72.72;100242.91;5072210;28;19912;-72
2020/12/19 11:34:27;;;;;;;;;;;;;;;6.08;72.70;100244.56;5073396;28;19912;-74
2020/12/19 11:36:52;;;;;;;;;;;;;;;6.09;72.48;100240.84;5072132;28;19943;-72
2020/12/19 11:39:18;;;;;;;;;;;;;;;6.08;71.81;100236.59;5071739;28;20381;-74
2020/12/19 11:41:43;;;;;;;;;;;;;;;6.08;71.98;100234.72;5071898;28;19920;-74
2020/12/19 11:44:09;;;;;;;;;;;;;;;6.11;72.06;100241.44;5071677;28;19952;-72
2020/12/19 11:46:35;;;;;;;;;;;;;;;6.12;72.34;100242.28;5071949;28;19960;-73
2020/12/19 11:49:00;;;;;;;;;;;;;;;6.13;72.20;100239.41;5071848;28;19974;-73
2020/12/19 11:51:29;;;;;;;;;;;;;;;6.12;71.78;100237.78;5071599;28;20008;-73
2020/12/19 11:53:55;;;;;;;;;;;;;;;6.15;71.92;100236.53;5071770;28;19923;-73
2020/12/19 11:56:20;;;;;;;;;;;;;;;6.16;71.81;100230.97;5071478;28;20319;-73
2020/12/19 11:58:46;;;;;;;;;;;;;;;6.18;71.71;100231.59;5071568;28;19998;-73
2020/12/19 12:01:11;;;;;;;;;;;;;;;6.19;71.82;100229.72;5071314;28;20510;-72
2020/12/19 12:03:36;;;;;;;;;;;;;;;6.18;71.15;100228.94;5073077;28;19959;-72
2020/12/19 12:06:01;;;;;;;;;;;;;;;6.12;72.14;100224.50;5071248;28;20061;-73
2020/12/19 12:08:27;;;;;;;;;;;;;;;6.21;71.42;100228.50;5071325;28;19917;-73
2020/12/19 12:10:52;;;;;;;;;;;;;;;6.22;71.57;100226.66;5071304;28;19912;-73
2020/12/19 12:13:17;;;;;;;;;;;;;;;6.21;71.18;100231.16;5070842;28;20461;-73
2020/12/19 12:15:42;;;;;;;;;;;;;;;6.18;71.50;100226.28;5071270;28;19921;-73
2020/12/19 12:18:08;;;;;;;;;;;;;;;6.18;72.06;100230.78;5070882;28;19912;-73
2020/12/19 12:20:33;;;;;;;;;;;;;;;6.20;72.30;100229.53;5071010;28;19912;-73
2020/12/19 12:22:58;;;;;;;;;;;;;;;6.20;72.02;100221.56;5071108;28;19912;-73
2020/12/19 12:25:23;;;;;;;;;;;;;;;6.21;71.31;100230.34;5070541;28;20377;-73
2020/12/19 12:27:49;;;;;;;;;;;;;;;6.21;70.91;100225.84;5071049;28;19962;-73
2020/12/19 12:30:14;;;;;;;;;;;;;;;6.18;70.53;100220.97;5070697;28;20303;-73
2020/12/19 12:32:40;;;;;;;;;;;;;;;6.16;70.16;100225.66;5070960;28;19912;-73
2020/12/19 12:35:05;;;;;;;;;;;;;;;6.15;70.82;100225.88;5070511;28;19939;-73
2020/12/19 12:37:30;;;;;;;;;;;;;;;6.14;70.66;100219.78;5070859;28;20011;-73
2020/12/19 12:39:56;;;;;;;;;;;;;;;6.18;71.08;100222.81;5070715;28;20010;-72
2020/12/19 12:42:22;;;;;;;;;;;;;;;6.19;70.76;100227.06;5070564;28;19912;-73